sensor_id;sensor_type;location;lat;lon;timestamp;P1;durP1;ratioP1;P2;durP2;ratioP2
944;SDS011;459;48.676;9.034;2023-03-15T00:02:22;4.50;;;3.20;;
944;SDS011;459;48.676;9.034;2023-03-15T00:04:47;4.77;;;3.83;;
944;SDS011;459;48.676;9.034;2023-03-15T00:07:12;4.07;;;3.43;;
944;SDS011;459;48.676;9.034;2023-03-15T00:09:37;4.07;;;3.67;;
944;SDS011;459;48.676;9.034;2023-03-15T00:12:03;5.30;;;4.40;;
944;SDS011;459;48.676;9.034;2023-03-15T00:14:28;4.30;;;3.63;;
944;SDS011;459;48.676;9.034;2023-03-15T00:16:53;5.70;;;3.63;;
944;SDS011;459;48.676;9.034;2023-03-15T00:19:19;5.70;;;4.20;;
944;SDS011;459;48.676;9.034;2023-03-15T00:21:44;4.97;;;3.97;;
944;SDS011;459;48.676;9.034;2023-03-15T00:24:09;6.77;;;4.53;;
944;SDS011;459;48.676;9.034;2023-03-15T00:26:35;6.80;;;3.93;;
944;SDS011;459;48.676;9.034;2023-03-15T00:29:00;5.67;;;3.80;;
944;SDS011;459;48.676;9.034;2023-03-15T00:31:25;5.37;;;4.70;;
944;SDS011;459;48.676;9.034;2023-03-15T00:33:51;5.50;;;3.97;;
944;SDS011;459;48.676;9.034;2023-03-15T00:36:20;11.00;;;3.90;;
944;SDS011;459;48.676;9.034;2023-03-15T00:38:49;4.53;;;3.90;;
944;SDS011;459;48.676;9.034;2023-03-15T00:41:15;5.90;;;4.13;;
944;SDS011;459;48.676;9.034;2023-03-15T00:43:40;6.90;;;3.80;;
944;SDS011;459;48.676;9.034;2023-03-15T00:46:06;13.87;;;4.97;;
944;SDS011;459;48.676;9.034;2023-03-15T00:48:31;6.87;;;3.63;;
944;SDS011;459;48.676;9.034;2023-03-15T00:51:01;9.80;;;4.57;;
944;SDS011;459;48.676;9.034;2023-03-15T00:53:26;8.70;;;3.63;;
944;SDS011;459;48.676;9.034;2023-03-15T00:55:51;5.50;;;4.00;;
944;SDS011;459;48.676;9.034;2023-03-15T00:58:16;9.07;;;3.20;;
944;SDS011;459;48.676;9.034;2023-03-15T01:00:41;5.47;;;3.80;;
944;SDS011;459;48.676;9.034;2023-03-15T01:03:06;7.30;;;3.40;;
944;SDS011;459;48.676;9.034;2023-03-15T01:05:32;4.00;;;2.90;;
944;SDS011;459;48.676;9.034;2023-03-15T01:07:57;7.50;;;3.47;;
944;SDS011;459;48.676;9.034;2023-03-15T01:10:22;11.13;;;2.93;;
944;SDS011;459;48.676;9.034;2023-03-15T01:12:47;3.43;;;2.67;;
944;SDS011;459;48.676;9.034;2023-03-15T01:15:13;5.47;;;2.60;;
944;SDS011;459;48.676;9.034;2023-03-15T01:17:38;3.87;;;2.67;;
944;SDS011;459;48.676;9.034;2023-03-15T01:20:04;5.37;;;2.30;;
944;SDS011;459;48.676;9.034;2023-03-15T01:22:30;3.83;;;2.50;;
944;SDS011;459;48.676;9.034;2023-03-15T01:24:55;4.83;;;2.93;;
944;SDS011;459;48.676;9.034;2023-03-15T01:27:20;6.13;;;2.50;;
944;SDS011;459;48.676;9.034;2023-03-15T01:29:45;5.30;;;2.60;;
944;SDS011;459;48.676;9.034;2023-03-15T01:32:10;5.53;;;2.73;;
944;SDS011;459;48.676;9.034;2023-03-15T01:34:36;2.87;;;2.67;;
944;SDS011;459;48.676;9.034;2023-03-15T01:37:01;5.97;;;2.73;;
944;SDS011;459;48.676;9.034;2023-03-15T01:39:27;4.53;;;2.33;;
944;SDS011;459;48.676;9.034;2023-03-15T01:41:52;2.83;;;2.10;;
944;SDS011;459;48.676;9.034;2023-03-15T01:44:18;7.53;;;2.37;;
944;SDS011;459;48.676;9.034;2023-03-15T01:46:43;4.40;;;3.50;;
944;SDS011;459;48.676;9.034;2023-03-15T01:49:10;4.00;;;2.70;;
944;SDS011;459;48.676;9.034;2023-03-15T01:57:07;5.20;;;2.00;;
944;SDS011;459;48.676;9.034;2023-03-15T01:59:34;4.27;;;2.20;;
944;SDS011;459;48.676;9.034;2023-03-15T02:02:00;5.53;;;1.93;;
944;SDS011;459;48.676;9.034;2023-03-15T02:04:33;5.93;;;2.73;;
944;SDS011;459;48.676;9.034;2023-03-15T02:07:00;4.33;;;1.83;;
944;SDS011;459;48.676;9.034;2023-03-15T02:09:46;5.07;;;2.20;;
944;SDS011;459;48.676;9.034;2023-03-15T02:12:14;3.80;;;1.87;;
944;SDS011;459;48.676;9.034;2023-03-15T02:14:41;4.20;;;2.00;;
944;SDS011;459;48.676;9.034;2023-03-15T02:17:06;3.00;;;2.00;;
944;SDS011;459;48.676;9.034;2023-03-15T02:22:10;4.30;;;2.10;;
944;SDS011;459;48.676;9.034;2023-03-15T02:24:46;3.83;;;1.67;;
944;SDS011;459;48.676;9.034;2023-03-15T02:27:12;4.63;;;1.90;;
944;SDS011;459;48.676;9.034;2023-03-15T02:29:37;5.43;;;1.40;;
944;SDS011;459;48.676;9.034;2023-03-15T02:32:03;3.90;;;1.50;;
944;SDS011;459;48.676;9.034;2023-03-15T02:34:28;8.10;;;2.80;;
944;SDS011;459;48.676;9.034;2023-03-15T02:36:54;9.53;;;3.20;;
944;SDS011;459;48.676;9.034;2023-03-15T02:39:20;2.17;;;1.67;;
944;SDS011;459;48.676;9.034;2023-03-15T02:41:47;4.40;;;1.67;;
944;SDS011;459;48.676;9.034;2023-03-15T02:44:15;2.20;;;1.70;;
944;SDS011;459;48.676;9.034;2023-03-15T02:46:41;6.20;;;2.30;;
944;SDS011;459;48.676;9.034;2023-03-15T02:49:07;4.00;;;1.60;;
944;SDS011;459;48.676;9.034;2023-03-15T02:51:34;4.53;;;1.97;;
944;SDS011;459;48.676;9.034;2023-03-15T02:53:59;5.30;;;1.70;;
944;SDS011;459;48.676;9.034;2023-03-15T02:56:24;5.10;;;2.70;;
944;SDS011;459;48.676;9.034;2023-03-15T02:58:50;5.20;;;2.20;;
944;SDS011;459;48.676;9.034;2023-03-15T03:01:15;5.57;;;2.00;;
944;SDS011;459;48.676;9.034;2023-03-15T03:03:41;3.40;;;2.30;;
944;SDS011;459;48.676;9.034;2023-03-15T03:06:07;4.97;;;2.17;;
944;SDS011;459;48.676;9.034;2023-03-15T03:08:32;5.63;;;2.50;;
944;SDS011;459;48.676;9.034;2023-03-15T03:10:57;2.40;;;2.20;;
944;SDS011;459;48.676;9.034;2023-03-15T03:13:22;3.73;;;1.70;;
944;SDS011;459;48.676;9.034;2023-03-15T03:15:48;4.07;;;2.20;;
944;SDS011;459;48.676;9.034;2023-03-15T03:18:13;8.00;;;3.67;;
944;SDS011;459;48.676;9.034;2023-03-15T03:20:39;2.83;;;2.13;;
944;SDS011;459;48.676;9.034;2023-03-15T03:23:04;7.60;;;2.47;;
944;SDS011;459;48.676;9.034;2023-03-15T03:25:30;6.50;;;2.23;;
944;SDS011;459;48.676;9.034;2023-03-15T03:27:55;6.90;;;2.03;;
944;SDS011;459;48.676;9.034;2023-03-15T03:30:21;2.70;;;2.07;;
944;SDS011;459;48.676;9.034;2023-03-15T03:32:46;2.50;;;2.07;;
944;SDS011;459;48.676;9.034;2023-03-15T03:35:11;2.90;;;2.23;;
944;SDS011;459;48.676;9.034;2023-03-15T03:37:36;6.70;;;2.47;;
944;SDS011;459;48.676;9.034;2023-03-15T03:40:02;2.73;;;2.53;;
944;SDS011;459;48.676;9.034;2023-03-15T03:42:30;4.43;;;2.80;;
944;SDS011;459;48.676;9.034;2023-03-15T03:44:56;4.73;;;2.67;;
944;SDS011;459;48.676;9.034;2023-03-15T03:47:21;3.30;;;3.00;;
944;SDS011;459;48.676;9.034;2023-03-15T03:49:46;3.00;;;2.70;;
944;SDS011;459;48.676;9.034;2023-03-15T03:52:11;3.03;;;2.03;;
944;SDS011;459;48.676;9.034;2023-03-15T03:54:36;4.50;;;2.40;;
944;SDS011;459;48.676;9.034;2023-03-15T03:57:01;3.23;;;2.33;;
944;SDS011;459;48.676;9.034;2023-03-15T03:59:27;6.13;;;3.17;;
944;SDS011;459;48.676;9.034;2023-03-15T04:01:52;2.90;;;2.13;;
944;SDS011;459;48.676;9.034;2023-03-15T04:04:17;3.77;;;2.80;;
944;SDS011;459;48.676;9.034;2023-03-15T04:06:42;4.67;;;3.27;;
944;SDS011;459;48.676;9.034;2023-03-15T04:09:10;3.33;;;1.80;;
944;SDS011;459;48.676;9.034;2023-03-15T04:11:36;3.97;;;2.70;;
944;SDS011;459;48.676;9.034;2023-03-15T04:14:02;5.20;;;2.90;;
944;SDS011;459;48.676;9.034;2023-03-15T04:16:27;3.97;;;3.10;;
944;SDS011;459;48.676;9.034;2023-03-15T04:18:52;3.67;;;3.10;;
944;SDS011;459;48.676;9.034;2023-03-15T04:21:20;6.33;;;4.23;;
944;SDS011;459;48.676;9.034;2023-03-15T04:23:47;5.60;;;3.70;;
944;SDS011;459;48.676;9.034;2023-03-15T04:26:12;5.97;;;3.83;;
944;SDS011;459;48.676;9.034;2023-03-15T04:28:38;6.97;;;3.40;;
944;SDS011;459;48.676;9.034;2023-03-15T04:31:03;5.27;;;3.07;;
944;SDS011;459;48.676;9.034;2023-03-15T04:33:34;3.20;;;2.90;;
944;SDS011;459;48.676;9.034;2023-03-15T04:35:59;6.73;;;3.77;;
944;SDS011;459;48.676;9.034;2023-03-15T04:38:26;8.23;;;3.60;;
944;SDS011;459;48.676;9.034;2023-03-15T04:40:52;7.60;;;3.80;;
944;SDS011;459;48.676;9.034;2023-03-15T04:43:18;3.90;;;2.50;;
944;SDS011;459;48.676;9.034;2023-03-15T04:45:44;5.90;;;3.90;;
944;SDS011;459;48.676;9.034;2023-03-15T04:48:09;7.83;;;4.00;;
944;SDS011;459;48.676;9.034;2023-03-15T04:50:34;6.00;;;3.27;;
944;SDS011;459;48.676;9.034;2023-03-15T04:53:00;5.87;;;3.40;;
944;SDS011;459;48.676;9.034;2023-03-15T04:55:25;4.20;;;2.73;;
944;SDS011;459;48.676;9.034;2023-03-15T04:57:50;15.00;;;9.87;;
944;SDS011;459;48.676;9.034;2023-03-15T05:00:15;6.50;;;4.07;;
944;SDS011;459;48.676;9.034;2023-03-15T05:02:41;3.93;;;3.57;;
944;SDS011;459;48.676;9.034;2023-03-15T05:05:07;4.10;;;3.37;;
944;SDS011;459;48.676;9.034;2023-03-15T05:07:32;5.90;;;3.70;;
944;SDS011;459;48.676;9.034;2023-03-15T05:09:58;5.03;;;3.73;;
944;SDS011;459;48.676;9.034;2023-03-15T05:12:23;5.07;;;3.73;;
944;SDS011;459;48.676;9.034;2023-03-15T05:14:49;8.70;;;4.07;;
944;SDS011;459;48.676;9.034;2023-03-15T05:17:14;9.93;;;4.00;;
944;SDS011;459;48.676;9.034;2023-03-15T05:19:39;7.00;;;3.50;;
944;SDS011;459;48.676;9.034;2023-03-15T05:22:06;8.53;;;3.93;;
944;SDS011;459;48.676;9.034;2023-03-15T05:24:31;5.37;;;3.93;;
944;SDS011;459;48.676;9.034;2023-03-15T05:26:56;3.93;;;3.40;;
944;SDS011;459;48.676;9.034;2023-03-15T05:29:21;5.40;;;3.70;;
944;SDS011;459;48.676;9.034;2023-03-15T05:31:47;6.97;;;3.80;;
944;SDS011;459;48.676;9.034;2023-03-15T05:34:13;6.43;;;3.37;;
944;SDS011;459;48.676;9.034;2023-03-15T05:36:38;8.97;;;3.87;;
944;SDS011;459;48.676;9.034;2023-03-15T05:39:03;8.57;;;5.23;;
944;SDS011;459;48.676;9.034;2023-03-15T05:41:29;5.00;;;2.90;;
944;SDS011;459;48.676;9.034;2023-03-15T05:43:54;3.67;;;3.37;;
944;SDS011;459;48.676;9.034;2023-03-15T05:46:19;4.30;;;3.90;;
944;SDS011;459;48.676;9.034;2023-03-15T05:48:46;4.83;;;3.13;;
944;SDS011;459;48.676;9.034;2023-03-15T05:51:11;3.87;;;3.30;;
944;SDS011;459;48.676;9.034;2023-03-15T05:53:37;4.03;;;3.53;;
944;SDS011;459;48.676;9.034;2023-03-15T05:56:02;4.40;;;3.40;;
944;SDS011;459;48.676;9.034;2023-03-15T05:58:27;8.83;;;3.80;;
944;SDS011;459;48.676;9.034;2023-03-15T06:00:52;6.87;;;3.03;;
944;SDS011;459;48.676;9.034;2023-03-15T06:03:18;5.00;;;3.60;;
944;SDS011;459;48.676;9.034;2023-03-15T06:05:43;5.87;;;3.03;;
944;SDS011;459;48.676;9.034;2023-03-15T06:08:08;5.30;;;4.47;;
944;SDS011;459;48.676;9.034;2023-03-15T06:10:33;7.27;;;4.43;;
944;SDS011;459;48.676;9.034;2023-03-15T06:12:59;2.23;;;2.10;;
944;SDS011;459;48.676;9.034;2023-03-15T06:15:24;6.63;;;3.60;;
944;SDS011;459;48.676;9.034;2023-03-15T06:17:49;7.13;;;3.87;;
944;SDS011;459;48.676;9.034;2023-03-15T06:20:15;5.37;;;3.43;;
944;SDS011;459;48.676;9.034;2023-03-15T06:22:40;4.77;;;3.70;;
944;SDS011;459;48.676;9.034;2023-03-15T06:25:05;5.50;;;4.50;;
944;SDS011;459;48.676;9.034;2023-03-15T06:27:31;5.23;;;2.50;;
944;SDS011;459;48.676;9.034;2023-03-15T06:29:56;10.40;;;4.90;;
944;SDS011;459;48.676;9.034;2023-03-15T06:32:22;3.63;;;3.33;;
944;SDS011;459;48.676;9.034;2023-03-15T06:34:47;6.70;;;3.90;;
944;SDS011;459;48.676;9.034;2023-03-15T06:37:12;6.47;;;3.67;;
944;SDS011;459;48.676;9.034;2023-03-15T06:39:39;7.23;;;4.00;;
944;SDS011;459;48.676;9.034;2023-03-15T06:42:04;5.93;;;3.47;;
944;SDS011;459;48.676;9.034;2023-03-15T06:44:32;4.10;;;3.67;;
944;SDS011;459;48.676;9.034;2023-03-15T06:46:57;10.53;;;3.83;;
944;SDS011;459;48.676;9.034;2023-03-15T06:49:22;3.27;;;2.80;;
944;SDS011;459;48.676;9.034;2023-03-15T06:51:47;5.17;;;3.50;;
944;SDS011;459;48.676;9.034;2023-03-15T06:54:12;4.70;;;3.73;;
944;SDS011;459;48.676;9.034;2023-03-15T06:56:38;6.20;;;4.23;;
944;SDS011;459;48.676;9.034;2023-03-15T06:59:03;6.23;;;3.70;;
944;SDS011;459;48.676;9.034;2023-03-15T07:01:28;3.70;;;3.40;;
944;SDS011;459;48.676;9.034;2023-03-15T07:03:54;3.63;;;2.43;;
944;SDS011;459;48.676;9.034;2023-03-15T07:06:19;8.03;;;2.90;;
944;SDS011;459;48.676;9.034;2023-03-15T07:08:44;6.60;;;3.80;;
944;SDS011;459;48.676;9.034;2023-03-15T07:11:09;4.37;;;3.53;;
944;SDS011;459;48.676;9.034;2023-03-15T07:13:35;2.67;;;2.00;;
944;SDS011;459;48.676;9.034;2023-03-15T07:16:00;4.13;;;2.60;;
944;SDS011;459;48.676;9.034;2023-03-15T07:18:25;5.03;;;2.90;;
944;SDS011;459;48.676;9.034;2023-03-15T07:20:56;4.97;;;2.73;;
944;SDS011;459;48.676;9.034;2023-03-15T07:23:22;3.70;;;2.50;;
944;SDS011;459;48.676;9.034;2023-03-15T07:25:47;2.70;;;2.47;;
944;SDS011;459;48.676;9.034;2023-03-15T07:28:13;1.70;;;1.57;;
944;SDS011;459;48.676;9.034;2023-03-15T07:30:38;3.80;;;3.10;;
944;SDS011;459;48.676;9.034;2023-03-15T07:33:03;6.30;;;4.20;;
944;SDS011;459;48.676;9.034;2023-03-15T07:35:28;2.90;;;2.57;;
944;SDS011;459;48.676;9.034;2023-03-15T07:37:53;1.90;;;1.73;;
944;SDS011;459;48.676;9.034;2023-03-15T07:40:19;4.47;;;2.17;;
944;SDS011;459;48.676;9.034;2023-03-15T07:42:44;4.30;;;2.70;;
944;SDS011;459;48.676;9.034;2023-03-15T07:45:10;3.27;;;2.30;;
944;SDS011;459;48.676;9.034;2023-03-15T07:47:35;3.43;;;2.80;;
944;SDS011;459;48.676;9.034;2023-03-15T07:50:00;8.93;;;2.83;;
944;SDS011;459;48.676;9.034;2023-03-15T07:52:25;4.53;;;2.50;;
944;SDS011;459;48.676;9.034;2023-03-15T07:54:51;2.37;;;2.27;;
944;SDS011;459;48.676;9.034;2023-03-15T07:57:16;9.57;;;3.70;;
944;SDS011;459;48.676;9.034;2023-03-15T07:59:41;4.43;;;2.40;;
944;SDS011;459;48.676;9.034;2023-03-15T08:02:08;3.10;;;1.87;;
944;SDS011;459;48.676;9.034;2023-03-15T08:04:33;7.43;;;3.80;;
944;SDS011;459;48.676;9.034;2023-03-15T08:06:59;4.17;;;3.10;;
944;SDS011;459;48.676;9.034;2023-03-15T08:09:24;8.73;;;2.50;;
944;SDS011;459;48.676;9.034;2023-03-15T08:11:49;4.77;;;3.67;;
944;SDS011;459;48.676;9.034;2023-03-15T08:14:14;2.80;;;2.00;;
944;SDS011;459;48.676;9.034;2023-03-15T08:16:39;4.53;;;2.10;;
944;SDS011;459;48.676;9.034;2023-03-15T08:19:05;1.83;;;1.60;;
944;SDS011;459;48.676;9.034;2023-03-15T08:21:30;4.80;;;2.50;;
944;SDS011;459;48.676;9.034;2023-03-15T08:23:57;1.97;;;1.73;;
944;SDS011;459;48.676;9.034;2023-03-15T08:26:23;4.40;;;2.40;;
944;SDS011;459;48.676;9.034;2023-03-15T08:28:48;3.53;;;1.77;;
944;SDS011;459;48.676;9.034;2023-03-15T08:31:13;6.03;;;2.53;;
944;SDS011;459;48.676;9.034;2023-03-15T08:33:39;2.97;;;1.90;;
944;SDS011;459;48.676;9.034;2023-03-15T08:36:04;1.77;;;1.57;;
944;SDS011;459;48.676;9.034;2023-03-15T08:38:29;2.53;;;1.97;;
944;SDS011;459;48.676;9.034;2023-03-15T08:40:55;8.20;;;3.57;;
944;SDS011;459;48.676;9.034;2023-03-15T08:43:20;8.03;;;3.20;;
944;SDS011;459;48.676;9.034;2023-03-15T08:45:46;7.00;;;2.47;;
944;SDS011;459;48.676;9.034;2023-03-15T08:48:12;6.03;;;2.20;;
944;SDS011;459;48.676;9.034;2023-03-15T08:50:38;4.23;;;2.60;;
944;SDS011;459;48.676;9.034;2023-03-15T08:53:03;2.27;;;2.07;;
944;SDS011;459;48.676;9.034;2023-03-15T08:55:29;2.93;;;2.23;;
944;SDS011;459;48.676;9.034;2023-03-15T08:57:54;2.77;;;2.57;;
944;SDS011;459;48.676;9.034;2023-03-15T09:00:19;1.97;;;1.77;;
944;SDS011;459;48.676;9.034;2023-03-15T09:02:47;3.03;;;2.60;;
944;SDS011;459;48.676;9.034;2023-03-15T09:05:18;2.97;;;2.77;;
944;SDS011;459;48.676;9.034;2023-03-15T09:07:44;2.37;;;1.10;;
944;SDS011;459;48.676;9.034;2023-03-15T09:10:10;2.20;;;1.50;;
944;SDS011;459;48.676;9.034;2023-03-15T09:12:38;4.03;;;2.93;;
944;SDS011;459;48.676;9.034;2023-03-15T09:15:05;8.63;;;2.00;;
944;SDS011;459;48.676;9.034;2023-03-15T09:17:30;5.53;;;2.27;;
944;SDS011;459;48.676;9.034;2023-03-15T09:19:55;4.73;;;3.23;;
944;SDS011;459;48.676;9.034;2023-03-15T09:22:20;2.43;;;2.23;;
944;SDS011;459;48.676;9.034;2023-03-15T09:24:46;3.30;;;2.27;;
944;SDS011;459;48.676;9.034;2023-03-15T09:27:11;3.47;;;2.00;;
944;SDS011;459;48.676;9.034;2023-03-15T09:29:36;3.00;;;1.60;;
944;SDS011;459;48.676;9.034;2023-03-15T09:32:05;5.27;;;2.60;;
944;SDS011;459;48.676;9.034;2023-03-15T09:34:30;3.67;;;2.43;;
944;SDS011;459;48.676;9.034;2023-03-15T09:36:55;2.73;;;2.00;;
944;SDS011;459;48.676;9.034;2023-03-15T09:39:21;4.83;;;2.33;;
944;SDS011;459;48.676;9.034;2023-03-15T09:41:48;1.57;;;1.13;;
944;SDS011;459;48.676;9.034;2023-03-15T09:49:18;2.93;;;1.47;;
944;SDS011;459;48.676;9.034;2023-03-15T09:54:19;2.87;;;1.50;;
944;SDS011;459;48.676;9.034;2023-03-15T09:56:49;3.00;;;1.53;;
944;SDS011;459;48.676;9.034;2023-03-15T09:59:17;2.77;;;1.40;;
944;SDS011;459;48.676;9.034;2023-03-15T10:01:46;1.93;;;1.40;;
944;SDS011;459;48.676;9.034;2023-03-15T10:06:40;2.50;;;1.13;;
944;SDS011;459;48.676;9.034;2023-03-15T10:09:11;2.67;;;1.17;;
944;SDS011;459;48.676;9.034;2023-03-15T10:14:31;1.17;;;0.97;;
944;SDS011;459;48.676;9.034;2023-03-15T10:16:58;1.53;;;1.40;;
944;SDS011;459;48.676;9.034;2023-03-15T10:19:25;1.37;;;1.27;;
944;SDS011;459;48.676;9.034;2023-03-15T10:27:27;1.80;;;1.67;;
944;SDS011;459;48.676;9.034;2023-03-15T10:29:55;1.27;;;0.90;;
944;SDS011;459;48.676;9.034;2023-03-15T10:32:22;2.47;;;0.97;;
944;SDS011;459;48.676;9.034;2023-03-15T10:34:50;0.67;;;0.67;;
944;SDS011;459;48.676;9.034;2023-03-15T10:37:16;4.77;;;1.27;;
944;SDS011;459;48.676;9.034;2023-03-15T10:39:43;1.77;;;0.87;;
944;SDS011;459;48.676;9.034;2023-03-15T10:42:22;2.03;;;1.00;;
944;SDS011;459;48.676;9.034;2023-03-15T10:44:47;4.43;;;2.53;;
944;SDS011;459;48.676;9.034;2023-03-15T10:47:12;7.57;;;1.40;;
944;SDS011;459;48.676;9.034;2023-03-15T10:49:39;1.40;;;1.30;;
944;SDS011;459;48.676;9.034;2023-03-15T10:52:05;3.33;;;1.53;;
944;SDS011;459;48.676;9.034;2023-03-15T10:54:30;2.03;;;1.80;;
944;SDS011;459;48.676;9.034;2023-03-15T10:56:56;2.30;;;1.40;;
944;SDS011;459;48.676;9.034;2023-03-15T10:59:24;1.30;;;0.87;;
944;SDS011;459;48.676;9.034;2023-03-15T11:01:50;1.77;;;1.10;;
944;SDS011;459;48.676;9.034;2023-03-15T11:04:17;6.13;;;1.40;;
944;SDS011;459;48.676;9.034;2023-03-15T11:09:12;1.93;;;1.00;;
944;SDS011;459;48.676;9.034;2023-03-15T11:14:16;1.37;;;1.23;;
944;SDS011;459;48.676;9.034;2023-03-15T11:16:41;0.60;;;0.50;;
944;SDS011;459;48.676;9.034;2023-03-15T11:19:17;4.20;;;0.83;;
944;SDS011;459;48.676;9.034;2023-03-15T11:21:43;1.60;;;0.87;;
944;SDS011;459;48.676;9.034;2023-03-15T11:24:12;1.50;;;0.60;;
944;SDS011;459;48.676;9.034;2023-03-15T11:26:42;2.60;;;0.70;;
944;SDS011;459;48.676;9.034;2023-03-15T11:31:40;1.92;;;0.90;;
944;SDS011;459;48.676;9.034;2023-03-15T11:34:26;1.43;;;0.80;;
944;SDS011;459;48.676;9.034;2023-03-15T11:36:59;0.50;;;0.50;;
944;SDS011;459;48.676;9.034;2023-03-15T11:39:29;1.73;;;0.90;;
944;SDS011;459;48.676;9.034;2023-03-15T11:41:58;1.70;;;1.17;;
944;SDS011;459;48.676;9.034;2023-03-15T11:44:32;2.10;;;1.30;;
944;SDS011;459;48.676;9.034;2023-03-15T11:47:07;2.97;;;0.80;;
944;SDS011;459;48.676;9.034;2023-03-15T11:49:35;2.40;;;1.33;;
944;SDS011;459;48.676;9.034;2023-03-15T11:52:02;2.67;;;1.17;;
944;SDS011;459;48.676;9.034;2023-03-15T11:54:28;2.73;;;0.83;;
944;SDS011;459;48.676;9.034;2023-03-15T11:56:55;0.70;;;0.60;;
944;SDS011;459;48.676;9.034;2023-03-15T11:59:27;3.97;;;1.37;;
944;SDS011;459;48.676;9.034;2023-03-15T12:02:00;1.07;;;0.97;;
944;SDS011;459;48.676;9.034;2023-03-15T12:06:58;1.20;;;1.10;;
944;SDS011;459;48.676;9.034;2023-03-15T12:12:04;2.53;;;1.03;;
944;SDS011;459;48.676;9.034;2023-03-15T12:14:33;1.17;;;0.90;;
944;SDS011;459;48.676;9.034;2023-03-15T12:19:42;2.80;;;0.93;;
944;SDS011;459;48.676;9.034;2023-03-15T12:22:14;0.60;;;0.50;;
944;SDS011;459;48.676;9.034;2023-03-15T12:24:40;1.47;;;1.00;;
944;SDS011;459;48.676;9.034;2023-03-15T12:27:15;2.60;;;1.17;;
944;SDS011;459;48.676;9.034;2023-03-15T12:29:43;1.63;;;0.80;;
944;SDS011;459;48.676;9.034;2023-03-15T12:39:42;5.13;;;0.97;;
944;SDS011;459;48.676;9.034;2023-03-15T12:42:11;1.83;;;0.80;;
944;SDS011;459;48.676;9.034;2023-03-15T12:44:37;1.13;;;0.80;;
944;SDS011;459;48.676;9.034;2023-03-15T12:47:07;2.10;;;1.10;;
944;SDS011;459;48.676;9.034;2023-03-15T12:57:02;5.65;;;3.47;;
944;SDS011;459;48.676;9.034;2023-03-15T12:59:35;1.50;;;0.93;;
944;SDS011;459;48.676;9.034;2023-03-15T13:02:02;1.27;;;1.10;;
944;SDS011;459;48.676;9.034;2023-03-15T13:04:32;2.80;;;0.90;;
944;SDS011;459;48.676;9.034;2023-03-15T13:09:52;2.07;;;1.70;;
944;SDS011;459;48.676;9.034;2023-03-15T13:12:28;2.67;;;1.40;;
944;SDS011;459;48.676;9.034;2023-03-15T13:15:08;1.60;;;1.10;;
944;SDS011;459;48.676;9.034;2023-03-15T13:17:35;3.77;;;1.20;;
944;SDS011;459;48.676;9.034;2023-03-15T13:22:54;2.63;;;1.50;;
944;SDS011;459;48.676;9.034;2023-03-15T13:25:24;2.93;;;1.20;;
944;SDS011;459;48.676;9.034;2023-03-15T13:27:57;2.40;;;0.90;;
944;SDS011;459;48.676;9.034;2023-03-15T13:32:59;2.97;;;1.40;;
944;SDS011;459;48.676;9.034;2023-03-15T13:35:25;1.20;;;1.10;;
944;SDS011;459;48.676;9.034;2023-03-15T13:37:50;4.30;;;1.07;;
944;SDS011;459;48.676;9.034;2023-03-15T13:40:23;1.60;;;1.50;;
944;SDS011;459;48.676;9.034;2023-03-15T13:42:49;2.53;;;1.40;;
944;SDS011;459;48.676;9.034;2023-03-15T13:45:14;4.13;;;2.53;;
944;SDS011;459;48.676;9.034;2023-03-15T13:47:41;3.97;;;1.87;;
944;SDS011;459;48.676;9.034;2023-03-15T13:50:07;1.60;;;1.50;;
944;SDS011;459;48.676;9.034;2023-03-15T13:52:32;2.53;;;2.33;;
944;SDS011;459;48.676;9.034;2023-03-15T13:54:57;1.93;;;1.40;;
944;SDS011;459;48.676;9.034;2023-03-15T13:57:23;3.67;;;1.60;;
944;SDS011;459;48.676;9.034;2023-03-15T14:00:03;1.73;;;1.63;;
944;SDS011;459;48.676;9.034;2023-03-15T14:05:14;2.43;;;1.70;;
944;SDS011;459;48.676;9.034;2023-03-15T14:07:40;7.73;;;2.33;;
944;SDS011;459;48.676;9.034;2023-03-15T14:12:43;2.70;;;1.70;;
944;SDS011;459;48.676;9.034;2023-03-15T14:20:42;2.20;;;2.00;;
944;SDS011;459;48.676;9.034;2023-03-15T14:23:12;2.47;;;1.83;;
944;SDS011;459;48.676;9.034;2023-03-15T14:25:38;2.70;;;2.17;;
944;SDS011;459;48.676;9.034;2023-03-15T14:28:04;2.10;;;1.90;;
944;SDS011;459;48.676;9.034;2023-03-15T14:30:30;3.87;;;2.00;;
944;SDS011;459;48.676;9.034;2023-03-15T14:32:58;3.40;;;1.97;;
944;SDS011;459;48.676;9.034;2023-03-15T14:35:29;1.60;;;1.50;;
944;SDS011;459;48.676;9.034;2023-03-15T14:42:51;4.00;;;1.67;;
944;SDS011;459;48.676;9.034;2023-03-15T14:45:17;2.80;;;2.20;;
944;SDS011;459;48.676;9.034;2023-03-15T14:47:44;2.93;;;2.23;;
944;SDS011;459;48.676;9.034;2023-03-15T14:50:17;6.20;;;2.00;;
944;SDS011;459;48.676;9.034;2023-03-15T14:52:43;3.87;;;2.40;;
944;SDS011;459;48.676;9.034;2023-03-15T14:55:12;2.57;;;1.90;;
944;SDS011;459;48.676;9.034;2023-03-15T14:57:38;2.83;;;1.90;;
944;SDS011;459;48.676;9.034;2023-03-15T15:00:04;2.50;;;1.97;;
944;SDS011;459;48.676;9.034;2023-03-15T15:02:29;4.90;;;2.20;;
944;SDS011;459;48.676;9.034;2023-03-15T15:04:56;2.80;;;1.70;;
944;SDS011;459;48.676;9.034;2023-03-15T15:07:21;3.40;;;1.70;;
944;SDS011;459;48.676;9.034;2023-03-15T15:09:47;1.97;;;1.80;;
944;SDS011;459;48.676;9.034;2023-03-15T15:12:13;1.93;;;1.57;;
944;SDS011;459;48.676;9.034;2023-03-15T15:14:39;3.30;;;2.00;;
944;SDS011;459;48.676;9.034;2023-03-15T15:17:07;2.40;;;1.70;;
944;SDS011;459;48.676;9.034;2023-03-15T15:19:32;1.90;;;1.80;;
944;SDS011;459;48.676;9.034;2023-03-15T15:21:57;3.33;;;1.90;;
944;SDS011;459;48.676;9.034;2023-03-15T15:24:23;2.03;;;1.70;;
944;SDS011;459;48.676;9.034;2023-03-15T15:26:49;3.10;;;2.33;;
944;SDS011;459;48.676;9.034;2023-03-15T15:29:14;3.57;;;2.27;;
944;SDS011;459;48.676;9.034;2023-03-15T15:31:40;3.13;;;2.60;;
944;SDS011;459;48.676;9.034;2023-03-15T15:34:05;3.43;;;2.30;;
944;SDS011;459;48.676;9.034;2023-03-15T15:36:35;4.50;;;2.00;;
944;SDS011;459;48.676;9.034;2023-03-15T15:39:01;3.03;;;2.53;;
944;SDS011;459;48.676;9.034;2023-03-15T15:41:28;2.53;;;2.33;;
944;SDS011;459;48.676;9.034;2023-03-15T15:43:57;3.47;;;2.93;;
944;SDS011;459;48.676;9.034;2023-03-15T15:46:22;2.87;;;2.50;;
944;SDS011;459;48.676;9.034;2023-03-15T15:48:48;3.50;;;3.20;;
944;SDS011;459;48.676;9.034;2023-03-15T15:51:18;4.47;;;2.90;;
944;SDS011;459;48.676;9.034;2023-03-15T15:53:44;4.73;;;2.33;;
944;SDS011;459;48.676;9.034;2023-03-15T15:56:09;3.50;;;2.67;;
944;SDS011;459;48.676;9.034;2023-03-15T15:58:36;3.03;;;2.50;;
944;SDS011;459;48.676;9.034;2023-03-15T16:01:01;3.10;;;2.80;;
944;SDS011;459;48.676;9.034;2023-03-15T16:03:27;3.63;;;3.33;;
944;SDS011;459;48.676;9.034;2023-03-15T16:05:52;5.93;;;3.23;;
944;SDS011;459;48.676;9.034;2023-03-15T16:08:21;3.30;;;3.00;;
944;SDS011;459;48.676;9.034;2023-03-15T16:10:47;5.80;;;3.07;;
944;SDS011;459;48.676;9.034;2023-03-15T16:13:12;5.63;;;3.80;;
944;SDS011;459;48.676;9.034;2023-03-15T16:15:38;4.50;;;3.37;;
944;SDS011;459;48.676;9.034;2023-03-15T16:18:10;4.20;;;3.60;;
944;SDS011;459;48.676;9.034;2023-03-15T16:20:36;3.90;;;2.80;;
944;SDS011;459;48.676;9.034;2023-03-15T16:23:01;4.60;;;2.83;;
944;SDS011;459;48.676;9.034;2023-03-15T16:25:27;5.20;;;3.10;;
944;SDS011;459;48.676;9.034;2023-03-15T16:27:53;3.60;;;2.60;;
944;SDS011;459;48.676;9.034;2023-03-15T16:30:20;3.00;;;2.70;;
944;SDS011;459;48.676;9.034;2023-03-15T16:32:46;4.90;;;3.47;;
944;SDS011;459;48.676;9.034;2023-03-15T16:35:12;2.37;;;2.17;;
944;SDS011;459;48.676;9.034;2023-03-15T16:37:40;3.80;;;3.37;;
944;SDS011;459;48.676;9.034;2023-03-15T16:40:20;2.70;;;2.50;;
944;SDS011;459;48.676;9.034;2023-03-15T16:42:47;3.40;;;2.30;;
944;SDS011;459;48.676;9.034;2023-03-15T16:45:13;3.07;;;2.70;;
944;SDS011;459;48.676;9.034;2023-03-15T16:47:39;3.80;;;2.87;;
944;SDS011;459;48.676;9.034;2023-03-15T16:50:04;2.87;;;2.00;;
944;SDS011;459;48.676;9.034;2023-03-15T16:52:29;2.70;;;1.90;;
944;SDS011;459;48.676;9.034;2023-03-15T16:54:56;2.50;;;1.63;;
944;SDS011;459;48.676;9.034;2023-03-15T16:57:22;2.63;;;2.43;;
944;SDS011;459;48.676;9.034;2023-03-15T16:59:48;7.70;;;5.17;;
944;SDS011;459;48.676;9.034;2023-03-15T17:02:21;4.37;;;2.57;;